Time;durP1;ratioP1;P1;durP2;ratioP2;P2;SDS_P1;SDS_P2;PMS_P1;PMS_P2;Temp;Humidity;BMP_temperature;BMP_pressure;BME280_temperature;BME280_humidity;BME280_pressure;Samples;Min_cycle;Max_cycle;Signal;HPM_P1;HPM_P2
2023/01/07 00:01:06;;;;;;;11.07;6.50;;;;;;;4.64;65.23;100179.53;4873270;29;20491;-96
2023/01/07 00:03:32;;;;;;;10.07;6.18;;;;;;;4.69;64.95;100197.56;4874323;29;20032;-96
2023/01/07 00:06:05;;;;;;;9.23;6.00;;;;;;;4.90;65.00;100220.50;4874635;29;20029;-96
2023/01/07 00:08:32;;;;;;;10.20;5.43;;;;;;;4.65;65.33;100200.69;4873788;29;20028;-96
2023/01/07 00:11:08;;;;;;;12.43;6.43;;;;;;;4.45;65.47;100203.38;4875349;29;20032;-96
2023/01/07 00:13:34;;;;;;;17.30;7.05;;;;;;;4.38;66.13;100199.06;4874903;29;20016;-96
2023/01/07 00:16:08;;;;;;;13.38;7.72;;;;;;;4.36;65.63;100214.47;4873812;29;20072;-96
2023/01/07 00:18:34;;;;;;;15.05;7.10;;;;;;;4.13;66.14;100207.72;4874774;29;20028;-96
2023/01/07 00:21:01;;;;;;;16.17;7.55;;;;;;;4.21;65.69;100215.53;4875355;29;20035;-96
2023/01/07 00:23:28;;;;;;;13.55;7.20;;;;;;;4.21;65.53;100196.84;4876065;29;20033;-96
2023/01/07 00:26:02;;;;;;;14.02;7.82;;;;;;;4.21;65.57;100196.84;4873943;29;20029;-96
2023/01/07 00:28:27;;;;;;;11.10;6.57;;;;;;;4.10;65.60;100209.97;4874593;29;20081;-96
2023/01/07 00:31:01;;;;;;;18.35;6.32;;;;;;;4.02;66.37;100237.63;4873430;29;20021;-96
2023/01/07 00:33:27;;;;;;;14.10;6.22;;;;;;;3.76;66.43;100207.28;4873637;29;20016;-96
2023/01/07 00:36:04;;;;;;;13.75;5.65;;;;;;;3.70;67.19;100217.94;4875244;29;20035;-96
2023/01/07 00:38:30;;;;;;;14.05;6.32;;;;;;;3.78;67.13;100201.78;4873715;29;20032;-96
2023/01/07 00:40:56;;;;;;;10.55;5.85;;;;;;;3.93;66.51;100202.38;4874919;29;20029;-96
2023/01/07 00:43:21;;;;;;;12.95;7.00;;;;;;;3.79;66.75;100203.41;4873932;29;20045;-96
2023/01/07 00:45:47;;;;;;;11.00;6.65;;;;;;;3.68;67.10;100202.16;4873908;29;20036;-96
2023/01/07 00:48:13;;;;;;;11.65;6.22;;;;;;;3.73;67.51;100212.19;4873892;29;20059;-96
2023/01/07 00:50:39;;;;;;;12.18;6.57;;;;;;;3.71;67.32;100198.25;4873856;29;20029;-96
2023/01/07 00:53:04;;;;;;;16.80;10.50;;;;;;;3.56;67.33;100198.44;4890431;29;20060;-96
2023/01/07 00:55:30;;;;;;;12.02;6.18;;;;;;;3.41;67.61;100202.09;4873758;29;20053;-96
2023/01/07 00:57:56;;;;;;;12.93;5.60;;;;;;;3.40;68.00;100210.28;4872474;29;20039;-96
2023/01/07 01:00:23;;;;;;;10.20;5.85;;;;;;;3.34;68.09;100211.91;4888516;29;20061;-96
2023/01/07 01:02:49;;;;;;;10.98;6.05;;;;;;;3.31;68.33;100209.66;4872871;29;20048;-96
2023/01/07 01:05:14;;;;;;;13.00;5.93;;;;;;;3.34;68.14;100221.72;4874353;29;20058;-96
2023/01/07 01:07:40;;;;;;;13.43;6.90;;;;;;;3.40;68.73;100235.06;4873364;29;20044;-96
2023/01/07 01:10:09;;;;;;;10.65;6.43;;;;;;;3.28;68.63;100219.84;4875357;29;20024;-96
2023/01/07 01:12:35;;;;;;;13.95;5.72;;;;;;;3.23;68.18;100213.28;4874122;29;20024;-96
2023/01/07 01:15:07;;;;;;;11.73;6.40;;;;;;;3.10;68.99;100226.56;4873933;29;20024;-96
2023/01/07 01:17:37;;;;;;;16.17;6.72;;;;;;;3.18;68.56;100247.69;4872946;29;20029;-96
2023/01/07 01:20:05;;;;;;;14.20;6.13;;;;;;;3.02;68.09;100226.72;4889551;29;20029;-96
2023/01/07 01:22:31;;;;;;;11.68;6.82;;;;;;;3.14;68.07;100221.66;4869289;29;20025;-94
2023/01/07 01:24:56;;;;;;;12.30;6.80;;;;;;;3.26;67.59;100232.53;4881628;29;20054;-92
2023/01/07 01:27:22;;;;;;;15.35;7.20;;;;;;;3.24;67.55;100222.13;4883885;29;20065;-92
2023/01/07 01:29:50;;;;;;;11.20;6.45;;;;;;;3.18;67.79;100233.56;4883079;29;20032;-92
2023/01/07 01:32:18;;;;;;;9.77;5.68;;;;;;;3.04;68.32;100236.16;4868375;29;20021;-92
2023/01/07 01:34:43;;;;;;;11.25;5.93;;;;;;;2.91;68.14;100222.78;4891544;29;20028;-94
2023/01/07 01:37:09;;;;;;;9.02;5.90;;;;;;;2.85;69.11;100230.75;4886305;29;20024;-93
2023/01/07 01:39:34;;;;;;;11.90;6.07;;;;;;;2.88;68.76;100227.69;4870455;29;20025;-92
2023/01/07 01:42:00;;;;;;;13.90;6.82;;;;;;;2.71;68.87;100217.34;4876692;29;20035;-92
2023/01/07 01:44:50;;;;;;;10.32;6.85;;;;;;;2.73;68.52;100228.63;4872134;29;20048;-92
2023/01/07 01:47:22;;;;;;;11.40;6.35;;;;;;;2.82;68.76;100247.91;4882658;29;20060;-93
2023/01/07 01:50:16;;;;;;;13.00;7.45;;;;;;;2.76;68.74;100241.53;4883320;29;20061;-92
2023/01/07 01:52:56;;;;;;;21.42;6.72;;;;;;;2.65;69.56;100230.63;4873941;29;20033;-92
2023/01/07 01:55:31;;;;;;;11.70;6.50;;;;;;;2.81;68.56;100236.44;4883626;29;20464;-92
2023/01/07 01:58:00;;;;;;;10.95;6.22;;;;;;;2.71;69.33;100232.50;4877718;29;20486;-92
2023/01/07 02:00:26;;;;;;;12.32;5.95;;;;;;;2.57;69.46;100215.63;4877584;29;20028;-92
2023/01/07 02:02:55;;;;;;;10.88;6.35;;;;;;;2.67;69.16;100216.09;4871703;29;20021;-92
2023/01/07 02:05:23;;;;;;;11.55;6.57;;;;;;;2.74;68.54;100219.63;4868854;29;20033;-93
2023/01/07 02:07:48;;;;;;;13.05;6.38;;;;;;;2.64;68.92;100211.19;4867500;29;20055;-93
2023/01/07 02:10:19;;;;;;;9.98;6.38;;;;;;;2.92;68.58;100219.09;4868760;29;20025;-92
2023/01/07 02:13:09;;;;;;;17.77;7.18;;;;;;;2.91;68.81;100232.63;4867503;29;20029;-92
2023/01/07 02:15:45;;;;;;;13.15;6.88;;;;;;;2.90;69.28;100228.31;4882931;29;20515;-92
2023/01/07 02:18:55;;;;;;;14.23;7.00;;;;;;;2.71;69.14;100230.66;4882577;29;20032;-92
2023/01/07 02:21:55;;;;;;;11.57;6.47;;;;;;;2.48;69.65;100208.84;4872116;29;20412;-93
2023/01/07 02:24:37;;;;;;;13.25;6.85;;;;;;;2.57;69.44;100215.63;4889074;29;20088;-92
2023/01/07 02:27:54;;;;;;;12.68;7.15;;;;;;;2.50;69.02;100225.41;4881879;29;20393;-92
2023/01/07 02:30:28;;;;;;;11.00;6.63;;;;;;;2.35;69.36;100221.03;4884533;29;20044;-93
2023/01/07 02:33:18;;;;;;;12.55;6.95;;;;;;;2.29;70.12;100228.97;4888941;29;20028;-92
2023/01/07 02:35:46;;;;;;;10.77;6.50;;;;;;;2.22;70.45;100223.56;4899273;29;20415;-92
2023/01/07 02:38:40;;;;;;;12.25;6.90;;;;;;;2.19;69.81;100218.66;4899461;29;20115;-93
2023/01/07 02:41:27;;;;;;;14.20;7.10;;;;;;;2.04;70.75;100200.16;4881837;29;20027;-92
2023/01/07 02:44:00;;;;;;;15.50;7.10;;;;;;;2.01;71.19;100221.75;4882204;29;20107;-92
2023/01/07 02:46:42;;;;;;;17.55;6.72;;;;;;;1.95;71.30;100223.38;4884755;29;20431;-92
2023/01/07 02:49:09;;;;;;;13.80;6.88;;;;;;;1.90;71.38;100220.44;4882120;29;20272;-92
2023/01/07 02:51:41;;;;;;;11.68;6.55;;;;;;;1.77;71.89;100191.13;4881333;29;20392;-92
2023/01/07 02:54:09;;;;;;;13.75;7.65;;;;;;;1.96;71.65;100218.88;4874577;29;20025;-92
2023/01/07 02:56:41;;;;;;;12.77;7.35;;;;;;;1.99;71.35;100221.13;4876734;29;20035;-93
2023/01/07 02:59:23;;;;;;;18.63;7.22;;;;;;;1.93;70.96;100221.91;4908083;29;20020;-92
2023/01/07 03:02:02;;;;;;;14.70;7.57;;;;;;;1.70;71.84;100199.06;4888851;29;20040;-92
2023/01/07 03:04:45;;;;;;;17.70;7.38;;;;;;;1.99;71.93;100229.09;4890150;29;20614;-92
2023/01/07 03:07:39;;;;;;;13.00;6.72;;;;;;;2.10;71.10;100217.97;4879113;29;20038;-93
2023/01/07 03:10:29;;;;;;;11.45;6.43;;;;;;;2.15;70.63;100196.97;4876952;29;20040;-93
2023/01/07 03:13:06;;;;;;;12.45;6.72;;;;;;;2.15;70.18;100212.09;4866311;29;20119;-92
2023/01/07 03:15:31;;;;;;;11.77;6.43;;;;;;;2.14;70.23;100237.84;4866666;29;20032;-92
2023/01/07 03:18:21;;;;;;;12.65;6.82;;;;;;;2.01;70.57;100225.25;4886275;29;20127;-93
2023/01/07 03:20:48;;;;;;;11.02;6.63;;;;;;;1.85;70.87;100224.69;4857171;29;20120;-92
2023/01/07 03:23:16;;;;;;;16.58;7.45;;;;;;;1.78;70.86;100206.84;4865890;29;20061;-92
2023/01/07 03:25:45;;;;;;;16.08;7.05;;;;;;;2.07;70.09;100228.16;4865692;29;20044;-93
2023/01/07 03:28:12;;;;;;;12.75;6.50;;;;;;;1.94;70.88;100221.72;4892172;29;20028;-92
2023/01/07 03:30:38;;;;;;;12.55;6.63;;;;;;;1.84;70.33;100207.94;4908558;29;20388;-91
2023/01/07 03:33:15;;;;;;;13.98;6.35;;;;;;;1.90;70.33;100231.06;4895042;29;20039;-93
2023/01/07 03:35:41;;;;;;;12.13;6.43;;;;;;;1.76;70.81;100224.00;4881540;29;20043;-93
2023/01/07 03:38:07;;;;;;;13.65;6.63;;;;;;;1.71;71.40;100229.88;4881883;29;20479;-92
2023/01/07 03:40:32;;;;;;;14.32;6.75;;;;;;;1.71;70.74;100210.47;4870763;29;20032;-92
2023/01/07 03:42:58;;;;;;;13.13;7.15;;;;;;;1.80;70.81;100235.88;4876002;29;20139;-92
2023/01/07 03:45:24;;;;;;;16.60;6.93;;;;;;;1.63;70.93;100223.88;4886290;29;20033;-92
2023/01/07 03:47:51;;;;;;;13.55;7.25;;;;;;;1.72;70.81;100243.97;4876795;29;20024;-93
2023/01/07 03:50:16;;;;;;;10.05;6.18;;;;;;;1.65;71.11;100240.44;4880166;29;20063;-93
2023/01/07 03:52:42;;;;;;;14.43;7.07;;;;;;;1.68;70.62;100229.44;4869216;29;20037;-92
2023/01/07 03:55:08;;;;;;;12.40;6.57;;;;;;;1.66;70.60;100226.97;4877848;29;20555;-92
2023/01/07 03:57:33;;;;;;;15.57;6.95;;;;;;;1.49;71.14;100229.03;4866802;29;20423;-92
2023/01/07 03:59:59;;;;;;;21.02;6.90;;;;;;;1.51;70.26;100224.34;4896830;29;20036;-92
2023/01/07 04:02:24;;;;;;;9.75;6.10;;;;;;;1.52;70.43;100220.72;4872849;29;20100;-92
2023/01/07 04:04:50;;;;;;;10.57;5.72;;;;;;;1.47;70.57;100220.44;4865912;29;20042;-92
2023/01/07 04:07:15;;;;;;;10.38;5.97;;;;;;;1.33;71.04;100214.19;4872298;29;20032;-92
2023/01/07 04:09:41;;;;;;;12.98;5.68;;;;;;;1.31;71.33;100234.78;4866848;29;20029;-92
2023/01/07 04:12:06;;;;;;;12.35;6.38;;;;;;;1.33;70.70;100226.59;4871576;29;20033;-92
2023/01/07 04:14:32;;;;;;;13.57;6.43;;;;;;;1.09;71.89;100217.97;4866407;29;20093;-92
2023/01/07 04:16:57;;;;;;;9.57;5.78;;;;;;;1.27;71.01;100246.75;4895743;29;20036;-92
2023/01/07 04:19:23;;;;;;;11.45;5.85;;;;;;;1.25;71.02;100234.69;4871083;29;20036;-92
2023/01/07 04:21:48;;;;;;;10.18;6.18;;;;;;;1.14;70.98;100231.50;4880200;29;20032;-92
2023/01/07 04:24:14;;;;;;;11.30;6.35;;;;;;;1.36;71.26;100256.25;4870171;29;20037;-92
2023/01/07 04:26:41;;;;;;;10.55;6.60;;;;;;;1.05;72.15;100229.13;4870008;29;20037;-92
2023/01/07 04:29:06;;;;;;;12.40;6.22;;;;;;;0.98;72.22;100224.56;4871303;29;20032;-93
2023/01/07 04:31:32;;;;;;;13.50;7.32;;;;;;;1.11;71.81;100239.81;4870812;29;20024;-92
2023/01/07 04:33:57;;;;;;;11.93;6.45;;;;;;;0.98;72.12;100232.53;4870252;29;20036;-92
2023/01/07 04:36:23;;;;;;;12.60;7.40;;;;;;;1.09;72.04;100246.34;4882117;29;20032;-92
2023/01/07 04:38:48;;;;;;;12.23;5.50;;;;;;;1.26;71.65;100255.72;4866612;29;20035;-92
2023/01/07 04:41:14;;;;;;;13.77;7.13;;;;;;;1.14;71.77;100257.19;4868274;29;20094;-92
2023/01/07 04:43:39;;;;;;;11.80;7.07;;;;;;;1.08;72.29;100250.81;4880950;29;20059;-92
2023/01/07 04:46:05;;;;;;;12.15;6.60;;;;;;;1.13;72.03;100261.69;4878510;29;20024;-92
2023/01/07 04:48:30;;;;;;;20.60;7.47;;;;;;;1.09;71.50;100230.41;4897930;29;20032;-92
2023/01/07 04:50:56;;;;;;;16.05;7.35;;;;;;;1.32;70.81;100241.72;4886178;29;20028;-92
2023/01/07 04:53:21;;;;;;;11.10;6.63;;;;;;;1.37;70.88;100267.66;4877838;29;20032;-92
2023/01/07 04:55:47;;;;;;;14.13;7.57;;;;;;;1.22;70.76;100243.81;4869038;29;20125;-92
2023/01/07 04:58:12;;;;;;;13.00;7.07;;;;;;;1.18;71.52;100248.69;4868826;29;20491;-92
2023/01/07 05:00:38;;;;;;;16.98;8.07;;;;;;;1.27;71.37;100269.81;4881822;29;20032;-92
2023/01/07 05:03:03;;;;;;;13.10;6.95;;;;;;;0.99;71.17;100236.81;4894960;29;20066;-92
2023/01/07 05:05:29;;;;;;;14.82;6.63;;;;;;;1.14;70.87;100251.88;4902925;29;20051;-93
2023/01/07 05:07:54;;;;;;;13.43;6.75;;;;;;;1.40;70.63;100257.50;4870357;29;20036;-92
2023/01/07 05:10:20;;;;;;;12.32;7.72;;;;;;;1.43;70.22;100243.03;4893472;29;20043;-93
2023/01/07 05:12:45;;;;;;;15.55;8.60;;;;;;;1.45;70.67;100245.53;4874260;29;20056;-92
2023/01/07 05:15:11;;;;;;;13.50;6.78;;;;;;;1.27;70.54;100238.00;4870436;29;20100;-93
2023/01/07 05:17:36;;;;;;;16.52;7.45;;;;;;;1.28;70.70;100264.31;4890499;29;20441;-93
2023/01/07 05:20:02;;;;;;;13.60;6.43;;;;;;;1.15;70.87;100266.81;4867522;29;20440;-92
2023/01/07 05:22:28;;;;;;;14.95;6.90;;;;;;;1.13;70.98;100242.31;4873272;29;20092;-92
2023/01/07 05:24:53;;;;;;;17.45;7.15;;;;;;;1.19;70.55;100239.72;4878632;29;20031;-92
2023/01/07 05:27:19;;;;;;;18.90;8.68;;;;;;;1.21;70.69;100252.81;4878739;29;20029;-92
2023/01/07 05:29:44;;;;;;;19.85;8.43;;;;;;;1.07;71.38;100248.34;4877427;29;20029;-92
2023/01/07 05:32:10;;;;;;;13.43;7.50;;;;;;;1.05;71.17;100248.53;4874829;29;20032;-93
2023/01/07 05:34:35;;;;;;;16.15;8.32;;;;;;;1.07;71.25;100262.41;4877260;29;20399;-93
2023/01/07 05:37:01;;;;;;;17.70;8.00;;;;;;;1.03;70.93;100260.31;4867204;29;20032;-92
2023/01/07 05:39:26;;;;;;;14.73;8.38;;;;;;;1.03;71.36;100265.63;4877400;29;20506;-92
2023/01/07 05:41:52;;;;;;;17.13;7.88;;;;;;;0.80;71.76;100245.34;4875065;29;20101;-92
2023/01/07 05:44:18;;;;;;;14.13;8.80;;;;;;;0.87;71.92;100264.81;4868376;29;20048;-92
2023/01/07 05:46:43;;;;;;;12.68;8.00;;;;;;;0.83;71.86;100244.13;4867837;29;20121;-93
2023/01/07 05:49:09;;;;;;;16.52;8.93;;;;;;;0.91;71.75;100257.31;4879033;29;20460;-93
2023/01/07 05:51:34;;;;;;;14.00;7.88;;;;;;;0.95;71.54;100256.75;4891164;29;20032;-92
2023/01/07 05:54:00;;;;;;;19.40;8.95;;;;;;;0.90;71.72;100245.06;4877135;29;20494;-93
2023/01/07 05:56:25;;;;;;;18.15;8.30;;;;;;;0.88;72.05;100271.75;4892389;29;20060;-93
2023/01/07 05:58:51;;;;;;;17.30;8.57;;;;;;;0.85;71.82;100260.69;4867402;29;20033;-93
2023/01/07 06:01:16;;;;;;;15.82;8.23;;;;;;;0.98;71.30;100269.66;4864752;29;20109;-93
2023/01/07 06:03:42;;;;;;;17.77;8.73;;;;;;;0.88;71.69;100269.09;4850150;29;20149;-93
2023/01/07 06:06:07;;;;;;;14.73;8.25;;;;;;;0.86;71.67;100267.66;4875843;29;20031;-93
2023/01/07 06:08:34;;;;;;;13.63;8.02;;;;;;;0.95;71.48;100283.25;4882595;29;20036;-93
2023/01/07 06:10:59;;;;;;;15.32;8.45;;;;;;;0.84;71.48;100262.53;4883299;29;20480;-93
2023/01/07 06:13:25;;;;;;;18.80;8.25;;;;;;;1.08;71.06;100287.09;4867707;29;20040;-92
2023/01/07 06:15:50;;;;;;;22.33;8.65;;;;;;;0.99;70.97;100287.19;4872462;29;20033;-92
2023/01/07 06:18:18;;;;;;;15.13;7.28;;;;;;;1.09;71.14;100292.22;4897469;29;20036;-91
2023/01/07 06:20:44;;;;;;;16.77;8.85;;;;;;;0.85;71.37;100266.84;4872998;29;20114;-91
2023/01/07 06:23:09;;;;;;;17.15;8.48;;;;;;;1.05;70.98;100268.91;4867443;29;20480;-92
2023/01/07 06:25:35;;;;;;;17.65;8.23;;;;;;;1.11;70.64;100257.56;4869226;29;20039;-92
2023/01/07 06:28:00;;;;;;;17.35;8.48;;;;;;;1.27;70.59;100272.47;4875672;29;20096;-90
2023/01/07 06:30:26;;;;;;;21.30;8.25;;;;;;;1.30;70.20;100259.63;4881639;29;20051;-91
2023/01/07 06:32:51;;;;;;;18.35;8.35;;;;;;;1.45;70.43;100280.03;4878989;29;20103;-91
2023/01/07 06:35:17;;;;;;;13.25;8.63;;;;;;;1.37;69.63;100259.72;4872129;29;20041;-93
2023/01/07 06:37:42;;;;;;;14.13;7.95;;;;;;;1.38;69.93;100250.75;4890102;29;20033;-91
2023/01/07 06:40:08;;;;;;;15.90;8.77;;;;;;;1.50;70.06;100275.00;4877176;29;20028;-91
2023/01/07 06:42:36;;;;;;;16.92;8.20;;;;;;;1.59;69.68;100279.16;4891620;29;20133;-92
2023/01/07 06:45:02;;;;;;;21.10;9.18;;;;;;;1.51;70.16;100266.81;4881515;29;20119;-91
2023/01/07 06:47:27;;;;;;;18.08;9.88;;;;;;;1.65;69.75;100277.59;4866060;29;20425;-91
2023/01/07 06:49:52;;;;;;;27.92;8.95;;;;;;;1.66;69.17;100269.47;4879590;29;20468;-91
2023/01/07 06:52:18;;;;;;;17.27;9.05;;;;;;;1.68;69.65;100272.75;4867011;29;20039;-91
2023/01/07 06:54:43;;;;;;;20.08;10.57;;;;;;;1.79;68.97;100269.59;4871448;29;20036;-90
2023/01/07 06:57:09;;;;;;;15.80;9.30;;;;;;;2.00;69.24;100281.22;4883921;29;20036;-94
2023/01/07 06:59:34;;;;;;;17.67;9.13;;;;;;;1.79;69.67;100266.94;4868612;29;20032;-94
2023/01/07 07:02:00;;;;;;;20.30;9.35;;;;;;;1.91;69.55;100283.19;4869184;29;20033;-94
2023/01/07 07:04:25;;;;;;;19.05;9.30;;;;;;;2.03;68.76;100278.19;4869034;29;20057;-94
2023/01/07 07:06:51;;;;;;;23.48;10.98;;;;;;;2.02;69.13;100287.97;4868826;29;20041;-92
2023/01/07 07:09:17;;;;;;;24.92;11.27;;;;;;;2.21;68.21;100278.53;4867697;29;20013;-92
2023/01/07 07:11:42;;;;;;;21.35;10.73;;;;;;;2.29;68.01;100263.50;4883516;29;20032;-92
2023/01/07 07:14:08;;;;;;;22.45;10.30;;;;;;;2.47;67.94;100268.31;4867302;29;20036;-93
2023/01/07 07:16:34;;;;;;;20.40;9.70;;;;;;;2.66;67.38;100274.78;4883562;29;20024;-92
2023/01/07 07:18:59;;;;;;;18.17;8.40;;;;;;;2.71;67.88;100275.03;4896364;29;20501;-92
2023/01/07 07:21:25;;;;;;;18.20;9.10;;;;;;;2.74;67.48;100258.69;4872139;29;20048;-91
2023/01/07 07:23:50;;;;;;;18.25;9.02;;;;;;;2.80;68.26;100269.38;4866856;29;20025;-91
2023/01/07 07:26:16;;;;;;;14.70;8.73;;;;;;;3.07;68.24;100287.31;4871256;29;20166;-92
2023/01/07 07:28:41;;;;;;;18.33;9.55;;;;;;;3.00;67.77;100274.00;4881237;29;20032;-93
2023/01/07 07:31:08;;;;;;;24.23;12.43;;;;;;;3.11;66.84;100284.06;4863685;29;20029;-92
2023/01/07 07:33:33;;;;;;;18.80;10.00;;;;;;;3.07;66.88;100261.53;4868370;29;20428;-92
2023/01/07 07:35:59;;;;;;;24.88;10.52;;;;;;;3.10;66.56;100255.81;4883425;29;20040;-92
2023/01/07 07:38:24;;;;;;;25.17;12.10;;;;;;;3.38;66.51;100279.72;4902399;29;20487;-91
2023/01/07 07:40:50;;;;;;;17.33;10.27;;;;;;;3.46;66.04;100267.22;4886776;29;20119;-92
2023/01/07 07:43:15;;;;;;;17.63;10.63;;;;;;;3.48;66.49;100268.66;4879689;29;20053;-92
2023/01/07 07:45:42;;;;;;;19.42;11.32;;;;;;;3.65;65.65;100274.44;4851962;29;20518;-94
2023/01/07 07:48:08;;;;;;;24.88;11.25;;;;;;;3.72;65.44;100261.97;4851800;29;20029;-94
2023/01/07 07:50:34;;;;;;;20.60;10.43;;;;;;;3.78;65.41;100249.72;4848484;29;20040;-93
2023/01/07 07:52:59;;;;;;;23.35;15.50;;;;;;;3.96;65.14;100251.78;4850392;29;20048;-93
2023/01/07 07:55:25;;;;;;;20.65;9.65;;;;;;;4.07;65.27;100272.50;4877063;29;20037;-93
2023/01/07 07:57:54;;;;;;;16.33;9.30;;;;;;;3.97;64.52;100253.44;4862414;29;20032;-93
2023/01/07 08:00:20;;;;;;;14.63;9.77;;;;;;;4.12;64.18;100253.22;4868115;29;20060;-93
2023/01/07 08:02:45;;;;;;;17.02;9.95;;;;;;;4.18;64.40;100261.22;4867823;29;20039;-93
2023/01/07 08:05:11;;;;;;;24.73;10.52;;;;;;;4.38;64.03;100271.06;4864384;29;20032;-93
2023/01/07 08:07:37;;;;;;;18.15;10.15;;;;;;;4.42;63.68;100251.78;4860407;29;20038;-93
2023/01/07 08:10:04;;;;;;;18.70;10.85;;;;;;;4.69;63.57;100258.94;4869595;29;20064;-93
2023/01/07 08:12:30;;;;;;;25.27;10.63;;;;;;;4.69;63.84;100251.78;4895851;29;20041;-93
2023/01/07 08:14:55;;;;;;;21.50;10.13;;;;;;;4.74;63.88;100264.47;4876670;29;20405;-93
2023/01/07 08:17:21;;;;;;;18.80;10.65;;;;;;;4.83;63.71;100279.22;4867410;29;20043;-94
2023/01/07 08:19:49;;;;;;;16.40;10.75;;;;;;;4.88;63.52;100254.56;4866668;29;20029;-93
2023/01/07 08:22:14;;;;;;;21.17;11.60;;;;;;;5.04;62.91;100248.78;4865024;29;20043;-93
2023/01/07 08:24:40;;;;;;;22.13;10.68;;;;;;;5.20;62.30;100252.84;4877346;29;20407;-92
2023/01/07 08:27:05;;;;;;;13.82;9.10;;;;;;;5.38;62.49;100262.84;4870729;29;20028;-93
2023/01/07 08:29:34;;;;;;;14.57;8.10;;;;;;;5.61;61.71;100267.66;4861265;29;20033;-94
2023/01/07 08:32:02;;;;;;;16.20;9.98;;;;;;;5.67;61.44;100256.94;4871957;29;20128;-95
2023/01/07 08:34:28;;;;;;;19.13;13.77;;;;;;;5.91;62.20;100273.22;4872123;29;20119;-93
2023/01/07 08:36:53;;;;;;;17.65;7.88;;;;;;;5.99;62.35;100264.97;4894737;29;20066;-93
2023/01/07 08:39:19;;;;;;;12.63;7.28;;;;;;;6.05;61.67;100247.28;4850805;29;20041;-93
2023/01/07 08:41:44;;;;;;;13.65;6.93;;;;;;;6.36;61.06;100281.19;4864428;29;20520;-91
2023/01/07 08:44:09;;;;;;;20.98;8.90;;;;;;;6.36;60.72;100258.97;4877483;29;20048;-93
2023/01/07 08:46:35;;;;;;;15.02;8.50;;;;;;;6.41;60.43;100262.63;4888528;29;20490;-93
2023/01/07 08:49:01;;;;;;;13.82;8.23;;;;;;;6.57;60.22;100263.91;4903392;29;20032;-93
2023/01/07 08:51:26;;;;;;;16.83;8.95;;;;;;;6.76;59.92;100274.66;4888502;29;20031;-93
2023/01/07 08:53:52;;;;;;;16.75;8.27;;;;;;;6.76;59.66;100253.25;4888481;29;20012;-91
2023/01/07 08:56:17;;;;;;;12.18;7.55;;;;;;;6.84;59.45;100244.91;4888468;29;20059;-94
2023/01/07 08:58:43;;;;;;;13.85;6.35;;;;;;;6.88;59.31;100233.53;4903187;29;20114;-94
2023/01/07 09:01:09;;;;;;;11.23;6.43;;;;;;;7.12;59.04;100248.94;4888315;29;20035;-93
2023/01/07 09:03:34;;;;;;;13.32;6.55;;;;;;;7.20;58.64;100243.28;4872622;29;20028;-94
2023/01/07 09:06:00;;;;;;;14.63;8.50;;;;;;;7.19;58.79;100229.06;4884244;29;20031;-94
2023/01/07 09:08:25;;;;;;;13.65;7.57;;;;;;;7.26;58.64;100226.31;4869274;29;20028;-93
2023/01/07 09:10:51;;;;;;;12.50;7.70;;;;;;;7.27;58.26;100218.06;4869404;29;20032;-93
2023/01/07 09:13:16;;;;;;;14.02;7.43;;;;;;;7.19;58.61;100204.16;4885298;29;20029;-93
2023/01/07 09:15:42;;;;;;;14.70;8.73;;;;;;;7.22;59.02;100198.34;4869094;29;20024;-93
2023/01/07 09:18:08;;;;;;;14.45;8.00;;;;;;;7.53;58.18;100218.72;4884450;29;20120;-93
2023/01/07 09:20:33;;;;;;;20.38;9.20;;;;;;;7.62;58.09;100211.22;4869761;29;20036;-93
2023/01/07 09:22:59;;;;;;;15.32;8.93;;;;;;;7.82;57.73;100224.31;4884761;29;20423;-93
2023/01/07 09:25:24;;;;;;;17.83;9.68;;;;;;;7.90;57.83;100219.41;4869857;29;20036;-93
2023/01/07 09:27:50;;;;;;;14.23;8.32;;;;;;;7.77;57.75;100184.78;4872594;29;20043;-93
2023/01/07 09:30:18;;;;;;;13.73;7.57;;;;;;;7.88;57.27;100183.16;4883414;29;20029;-93
2023/01/07 09:32:44;;;;;;;16.27;7.88;;;;;;;8.07;57.10;100197.31;4873559;29;20457;-93
2023/01/07 09:35:10;;;;;;;16.45;8.13;;;;;;;8.12;57.11;100188.59;4884539;29;20024;-93
2023/01/07 09:37:35;;;;;;;15.52;8.80;;;;;;;8.23;56.96;100196.63;4869226;29;20021;-94
2023/01/07 09:40:01;;;;;;;18.20;9.93;;;;;;;8.25;56.30;100174.94;4886991;29;20032;-93
2023/01/07 09:42:36;;;;;;;15.32;8.65;;;;;;;8.48;56.63;100191.03;4869050;29;20068;-93
2023/01/07 09:45:16;;;;;;;14.75;9.30;;;;;;;8.50;56.03;100167.47;4907358;29;20033;-93
2023/01/07 09:47:44;;;;;;;14.30;7.90;;;;;;;8.60;55.79;100171.44;4894284;29;20511;-93
2023/01/07 09:50:16;;;;;;;12.90;7.00;;;;;;;8.53;55.90;100143.91;4867568;29;20032;-94
2023/01/07 09:52:44;;;;;;;16.60;8.30;;;;;;;8.66;55.86;100154.41;4883904;29;20032;-93
2023/01/07 09:55:21;;;;;;;16.15;8.80;;;;;;;8.79;55.71;100142.56;4881143;29;20467;-94
2023/01/07 09:57:47;;;;;;;15.85;6.80;;;;;;;8.73;55.42;100130.91;4867871;29;20563;-94
2023/01/07 10:00:15;;;;;;;16.05;9.00;;;;;;;8.93;55.08;100149.31;4871631;29;20168;-93
2023/01/07 10:03:11;;;;;;;18.95;8.88;;;;;;;9.18;55.17;100164.28;4875473;29;20123;-93
2023/01/07 10:06:06;;;;;;;13.00;7.00;;;;;;;9.22;54.08;100150.13;4893944;29;20352;-94
2023/01/07 10:08:50;;;;;;;11.90;6.60;;;;;;;9.35;54.89;100151.72;4851049;29;20492;-95
2023/01/07 10:11:15;;;;;;;8.70;4.57;;;;;;;9.31;54.65;100151.38;4866852;29;20035;-93
2023/01/07 10:13:40;;;;;;;5.82;3.90;;;;;;;9.39;54.48;100139.41;4865503;29;20458;-93
2023/01/07 10:16:31;;;;;;;8.90;5.57;;;;;;;9.38;54.44;100121.69;4864905;29;20068;-94
2023/01/07 10:19:20;;;;;;;9.07;4.47;;;;;;;9.65;53.49;100148.75;4865602;29;20033;-93
2023/01/07 10:22:00;;;;;;;7.60;4.30;;;;;;;9.65;54.02;100135.31;4865826;29;20025;-92
2023/01/07 10:24:45;;;;;;;19.88;7.65;;;;;;;9.66;53.90;100115.41;4889434;29;20463;-93
2023/01/07 10:27:12;;;;;;;9.35;4.57;;;;;;;9.69;53.78;100108.72;4897260;29;20028;-92
2023/01/07 10:29:49;;;;;;;7.25;3.50;;;;;;;9.80;53.79;100129.38;4869699;29;20029;-93
2023/01/07 10:32:19;;;;;;;8.05;3.60;;;;;;;9.74;53.42;100108.03;4881444;29;20032;-93
2023/01/07 10:34:55;;;;;;;5.82;3.50;;;;;;;9.79;53.14;100105.41;4885531;29;20030;-92
2023/01/07 10:37:30;;;;;;;5.45;3.28;;;;;;;10.00;53.11;100123.50;4869303;29;20055;-94
2023/01/07 10:40:14;;;;;;;6.78;3.72;;;;;;;9.95;53.83;100111.84;4899896;29;20547;-93
2023/01/07 10:43:17;;;;;;;6.18;3.10;;;;;;;9.79;53.32;100075.81;4882662;29;20064;-94
2023/01/07 10:46:05;;;;;;;4.63;2.95;;;;;;;10.04;53.33;100115.72;4886694;29;20067;-93
2023/01/07 10:48:40;;;;;;;7.20;4.28;;;;;;;10.09;52.94;100113.94;4878328;29;20036;-94
2023/01/07 10:51:51;;;;;;;5.22;2.75;;;;;;;10.00;53.33;100099.28;4903341;29;20024;-92
2023/01/07 10:54:30;;;;;;;;;;;;;;;10.07;52.87;100118.75;4905233;29;20485;-93
2023/01/07 10:57:00;;;;;;;4.53;2.75;;;;;;;10.11;53.15;100108.31;4889782;29;19961;-95
2023/01/07 10:59:25;;;;;;;5.35;3.38;;;;;;;10.10;52.87;100093.22;4882585;29;20042;-93
2023/01/07 11:01:52;;;;;;;8.18;4.30;;;;;;;10.06;52.69;100079.44;4883190;29;20422;-92
2023/01/07 11:04:17;;;;;;;9.32;4.85;;;;;;;10.06;52.43;100067.88;4867664;29;20041;-92
2023/01/07 11:06:52;;;;;;;3.55;2.25;;;;;;;10.29;52.55;100088.34;4890060;29;20495;-93
2023/01/07 11:09:35;;;;;;;8.15;3.83;;;;;;;10.17;52.33;100060.75;4900474;29;20155;-92
2023/01/07 11:12:05;;;;;;;5.63;2.40;;;;;;;10.28;52.45;100078.66;4882016;29;20040;-93
2023/01/07 11:14:32;;;;;;;5.00;2.58;;;;;;;10.12;52.99;100069.56;4890057;29;20392;-93
2023/01/07 11:17:31;;;;;;;6.72;2.47;;;;;;;10.15;52.82;100074.47;4862630;29;20028;-93
2023/01/07 11:19:56;;;;;;;10.77;4.88;;;;;;;10.29;52.61;100064.13;4878626;29;20055;-92
2023/01/07 11:22:25;;;;;;;4.63;2.45;;;;;;;10.39;52.43;100079.66;4866266;29;20076;-93
2023/01/07 11:24:50;;;;;;;3.40;2.20;;;;;;;10.22;52.28;100058.13;4877719;29;20088;-93
2023/01/07 11:27:16;;;;;;;5.85;2.67;;;;;;;10.28;52.67;100052.56;4863180;29;20024;-92
2023/01/07 11:29:43;;;;;;;6.35;2.97;;;;;;;10.32;52.31;100061.78;4875155;29;20449;-93
2023/01/07 11:32:32;;;;;;;5.15;2.80;;;;;;;10.45;52.56;100078.66;4887331;29;20053;-93
2023/01/07 11:34:59;;;;;;;7.47;2.95;;;;;;;10.38;52.69;100065.38;4874000;29;20025;-92